createdAt,value
2018-11-14T00:01:07.025Z,10.40
2018-11-14T00:03:34.587Z,10.40
2018-11-14T00:06:02.148Z,10.40
2018-11-14T00:08:29.712Z,10.50
2018-11-14T00:10:57.272Z,10.50
2018-11-14T00:13:24.858Z,10.50
2018-11-14T00:15:52.452Z,10.50
2018-11-14T00:18:20.077Z,10.50
2018-11-14T00:20:47.678Z,10.50
2018-11-14T00:23:15.344Z,10.50
2018-11-14T00:25:42.942Z,10.50
2018-11-14T00:28:10.477Z,10.50
2018-11-14T00:30:38.058Z,10.60
2018-11-14T00:33:05.640Z,10.50
2018-11-14T00:35:33.164Z,10.50
2018-11-14T00:38:00.748Z,10.50
2018-11-14T00:40:28.295Z,10.60
2018-11-14T00:42:55.826Z,10.60
2018-11-14T00:45:23.428Z,10.50
2018-11-14T00:47:51.373Z,10.50
2018-11-14T00:50:19.285Z,10.50
2018-11-14T00:52:46.953Z,10.50
2018-11-14T00:55:15.646Z,10.40
2018-11-14T00:57:44.352Z,10.40
2018-11-14T01:00:14.567Z,10.30
2018-11-14T01:02:42.607Z,10.30
2018-11-14T01:05:11.277Z,10.40
2018-11-14T01:07:39.064Z,10.40
2018-11-14T01:10:09.290Z,10.40
2018-11-14T01:12:37.017Z,10.30
2018-11-14T01:15:06.290Z,10.30
2018-11-14T01:17:33.848Z,10.30
2018-11-14T01:20:01.417Z,10.30
2018-11-14T01:22:28.945Z,10.30
2018-11-14T01:24:56.539Z,10.10
2018-11-14T01:27:24.461Z,10.10
2018-11-14T01:29:51.635Z,10.00
2018-11-14T01:32:19.207Z,10.00
2018-11-14T01:34:46.803Z,9.80
2018-11-14T01:37:14.370Z,9.90
2018-11-14T01:39:41.935Z,9.80
2018-11-14T01:42:09.534Z,9.80
2018-11-14T01:44:37.116Z,10.00
2018-11-14T01:47:04.701Z,10.00
2018-11-14T01:49:32.232Z,10.00
2018-11-14T01:51:59.799Z,9.90
2018-11-14T01:54:27.350Z,9.90
2018-11-14T01:56:54.872Z,10.00
2018-11-14T01:59:22.446Z,10.00
2018-11-14T02:01:49.963Z,9.90
2018-11-14T02:04:17.491Z,9.90
2018-11-14T02:06:45.041Z,9.90
2018-11-14T02:09:12.554Z,10.00
2018-11-14T02:11:40.083Z,10.00
2018-11-14T02:14:07.624Z,10.00
2018-11-14T02:16:35.194Z,10.00
2018-11-14T02:19:02.759Z,10.00
2018-11-14T02:21:30.341Z,10.00
2018-11-14T02:23:57.900Z,9.90
2018-11-14T02:26:25.449Z,9.90
2018-11-14T02:28:52.993Z,9.90
2018-11-14T02:31:20.685Z,9.90
2018-11-14T02:33:48.365Z,9.90
2018-11-14T02:36:15.979Z,9.90
2018-11-14T02:38:43.502Z,9.90
2018-11-14T02:41:11.087Z,9.80
2018-11-14T02:43:38.603Z,9.80
2018-11-14T02:46:06.170Z,9.90
2018-11-14T02:48:33.721Z,9.80
2018-11-14T02:51:12.647Z,9.80
2018-11-14T02:53:40.214Z,9.80
2018-11-14T02:56:09.831Z,9.80
2018-11-14T02:58:37.494Z,9.70
2018-11-14T03:01:05.483Z,9.60
2018-11-14T03:03:32.963Z,9.70
2018-11-14T03:06:00.553Z,9.70
2018-11-14T03:08:28.119Z,9.60
2018-11-14T03:10:55.741Z,9.70
2018-11-14T03:13:23.348Z,9.60
2018-11-14T03:15:50.899Z,9.60
2018-11-14T03:18:18.465Z,9.60
2018-11-14T03:20:46.016Z,9.60
2018-11-14T03:23:13.539Z,9.70
2018-11-14T03:25:41.096Z,9.50
2018-11-14T03:28:08.660Z,9.60
2018-11-14T03:30:36.242Z,9.70
2018-11-14T03:33:03.773Z,9.70
2018-11-14T03:35:36.885Z,9.70
2018-11-14T03:38:04.632Z,9.70
2018-11-14T03:40:32.165Z,9.70
2018-11-14T03:42:59.709Z,9.70
2018-11-14T03:45:27.285Z,9.70
2018-11-14T03:47:54.857Z,9.80
2018-11-14T03:50:22.472Z,9.80
2018-11-14T03:52:50.010Z,9.80
2018-11-14T03:55:17.561Z,9.80
2018-11-14T03:57:45.136Z,9.70
2018-11-14T04:00:14.242Z,9.70
2018-11-14T04:02:42.311Z,9.70
2018-11-14T04:05:10.078Z,9.70
2018-11-14T04:07:38.176Z,9.70
2018-11-14T04:10:06.805Z,9.70
2018-11-14T04:12:34.422Z,9.80
2018-11-14T04:15:01.998Z,9.80
2018-11-14T04:17:29.586Z,9.80
2018-11-14T04:19:57.486Z,9.70
2018-11-14T04:22:24.988Z,9.60
2018-11-14T04:24:52.480Z,9.60
2018-11-14T04:27:20.076Z,9.50
2018-11-14T04:29:47.626Z,9.50
2018-11-14T04:32:15.186Z,9.50
2018-11-14T04:34:42.747Z,9.40
2018-11-14T04:37:10.275Z,9.50
2018-11-14T04:39:37.822Z,9.50
2018-11-14T04:42:05.410Z,9.50
2018-11-14T04:44:32.948Z,9.50
2018-11-14T04:47:00.552Z,9.50
2018-11-14T04:49:28.072Z,9.50
2018-11-14T04:51:55.645Z,9.50
2018-11-14T04:54:23.161Z,9.50
2018-11-14T04:56:50.666Z,9.50
2018-11-14T04:59:18.178Z,9.50
2018-11-14T05:01:45.774Z,9.60
2018-11-14T05:04:13.364Z,9.60
2018-11-14T05:06:40.948Z,9.60
2018-11-14T05:09:10.144Z,9.60
2018-11-14T05:11:38.285Z,9.60
2018-11-14T05:14:06.578Z,9.50
2018-11-14T05:16:34.138Z,9.50
2018-11-14T05:19:01.709Z,9.50
2018-11-14T05:21:29.320Z,9.30
2018-11-14T05:23:56.861Z,9.30
2018-11-14T05:26:24.422Z,9.30
2018-11-14T05:28:51.976Z,9.40
2018-11-14T05:31:19.540Z,9.40
2018-11-14T05:33:47.079Z,9.50
2018-11-14T05:36:21.539Z,9.50
2018-11-14T05:38:49.057Z,9.50
2018-11-14T05:41:16.661Z,9.50
2018-11-14T05:43:44.255Z,9.50
2018-11-14T05:46:11.896Z,9.50
2018-11-14T05:48:39.433Z,9.50
2018-11-14T05:51:07.004Z,9.60
2018-11-14T05:53:34.624Z,9.60
2018-11-14T05:56:02.271Z,9.60
2018-11-14T05:58:29.781Z,9.60
2018-11-14T06:00:57.407Z,9.50
2018-11-14T06:03:25.043Z,9.50
2018-11-14T06:05:52.656Z,9.50
2018-11-14T06:08:20.205Z,9.50
2018-11-14T06:10:47.777Z,9.50
2018-11-14T06:13:16.144Z,9.50
2018-11-14T06:15:43.703Z,9.50
2018-11-14T06:18:11.267Z,9.50
2018-11-14T06:20:38.897Z,9.40
2018-11-14T06:23:06.461Z,9.40
2018-11-14T06:25:36.558Z,9.40
2018-11-14T06:28:05.388Z,9.40
2018-11-14T06:30:36.519Z,9.40
2018-11-14T06:33:05.333Z,9.40
2018-11-14T06:35:32.905Z,9.40
2018-11-14T06:38:00.494Z,9.30
2018-11-14T06:40:28.139Z,9.30
2018-11-14T06:42:55.715Z,9.30
2018-11-14T06:45:24.555Z,9.30
2018-11-14T06:47:53.455Z,9.20
2018-11-14T06:50:21.114Z,9.20
2018-11-14T06:52:49.810Z,9.10
2018-11-14T06:55:17.975Z,9.10
2018-11-14T06:57:45.531Z,9.20
2018-11-14T07:00:22.448Z,9.10
2018-11-14T07:02:50.314Z,9.10
2018-11-14T07:05:18.064Z,9.10
2018-11-14T07:07:45.813Z,9.10
2018-11-14T07:10:16.274Z,9.10
2018-11-14T07:12:43.955Z,9.10
2018-11-14T07:15:14.281Z,9.00
2018-11-14T07:17:42.479Z,9.00
2018-11-14T07:20:13.420Z,9.00
2018-11-14T07:22:41.103Z,8.90
2018-11-14T07:25:08.727Z,9.00
2018-11-14T07:27:36.305Z,8.90
2018-11-14T07:30:04.890Z,8.90
2018-11-14T07:32:32.436Z,9.00
2018-11-14T07:34:59.995Z,9.00
2018-11-14T07:37:27.580Z,9.00
2018-11-14T07:39:55.197Z,9.00
2018-11-14T07:42:23.008Z,9.00
2018-11-14T07:44:50.581Z,9.00
2018-11-14T07:47:18.180Z,9.10
2018-11-14T07:49:45.695Z,9.10
2018-11-14T07:52:13.263Z,9.20
2018-11-14T07:54:40.891Z,9.20
2018-11-14T07:57:08.316Z,9.30
2018-11-14T07:59:35.861Z,9.20
2018-11-14T08:02:03.469Z,9.20
2018-11-14T08:04:31.026Z,9.30
2018-11-14T08:06:58.624Z,9.30
2018-11-14T08:09:26.252Z,9.40
2018-11-14T08:11:53.814Z,9.40
2018-11-14T08:14:21.384Z,9.40
2018-11-14T08:16:48.955Z,9.50
2018-11-14T08:19:16.540Z,9.60
2018-11-14T08:21:44.158Z,9.70
2018-11-14T08:24:11.734Z,9.80
2018-11-14T08:26:39.316Z,9.80
2018-11-14T08:29:07.078Z,9.90
2018-11-14T08:31:34.615Z,9.90
2018-11-14T08:34:02.230Z,10.00
2018-11-14T08:36:29.752Z,10.00
2018-11-14T08:38:57.326Z,10.10
2018-11-14T08:41:24.892Z,10.10
2018-11-14T08:43:52.500Z,10.00
2018-11-14T08:46:20.092Z,9.90
2018-11-14T08:48:47.719Z,9.80
2018-11-14T08:51:15.276Z,10.00
2018-11-14T08:53:42.857Z,10.10
2018-11-14T08:56:10.446Z,10.10
2018-11-14T08:58:38.045Z,10.20
2018-11-14T09:01:05.724Z,10.10
2018-11-14T09:03:33.278Z,10.10
2018-11-14T09:06:00.879Z,10.10
2018-11-14T09:08:28.474Z,10.10
2018-11-14T09:10:56.104Z,10.20
2018-11-14T09:13:23.686Z,10.20
2018-11-14T09:15:51.233Z,10.20
2018-11-14T09:18:18.783Z,10.30
2018-11-14T09:20:46.339Z,10.30
2018-11-14T09:23:13.935Z,10.40
2018-11-14T09:25:41.564Z,10.40
2018-11-14T09:28:09.171Z,10.50
2018-11-14T09:30:36.750Z,10.60
2018-11-14T09:33:04.986Z,10.70
2018-11-14T09:35:32.536Z,10.60
2018-11-14T09:38:00.573Z,10.70
2018-11-14T09:40:28.778Z,10.70
2018-11-14T09:42:56.341Z,10.70
2018-11-14T09:45:26.143Z,10.80
2018-11-14T09:47:53.702Z,10.80
2018-11-14T09:50:26.692Z,10.80
2018-11-14T09:52:55.652Z,10.80
2018-11-14T09:55:23.206Z,10.80
2018-11-14T09:57:50.765Z,10.80
2018-11-14T10:00:21.095Z,10.70
2018-11-14T10:02:50.100Z,10.80
2018-11-14T10:05:19.053Z,10.70
2018-11-14T10:07:46.801Z,10.60
2018-11-14T10:10:15.631Z,10.60
2018-11-14T10:12:43.240Z,10.60
2018-11-14T10:15:16.508Z,10.70
2018-11-14T10:17:44.738Z,10.80
2018-11-14T10:20:13.650Z,11.00
2018-11-14T10:22:41.744Z,11.10
2018-11-14T10:25:09.905Z,11.10
2018-11-14T10:27:38.444Z,11.10
2018-11-14T10:30:12.548Z,11.00
2018-11-14T10:32:40.532Z,11.10
2018-11-14T10:35:08.910Z,11.10
2018-11-14T10:37:36.578Z,11.10
2018-11-14T10:40:05.755Z,11.20
2018-11-14T10:42:33.304Z,11.30
2018-11-14T10:45:00.905Z,11.40
2018-11-14T10:47:28.525Z,11.50
2018-11-14T10:49:56.083Z,11.50
2018-11-14T10:52:23.683Z,11.40
2018-11-14T10:54:51.185Z,11.30
2018-11-14T10:57:18.752Z,11.30
2018-11-14T10:59:46.435Z,11.30
2018-11-14T11:02:19.657Z,11.30
2018-11-14T11:04:52.818Z,11.40
2018-11-14T11:07:26.128Z,11.40
2018-11-14T11:09:59.302Z,11.50
2018-11-14T11:14:37.086Z,11.50
2018-11-14T11:18:13.565Z,11.60
2018-11-14T11:20:41.277Z,11.40
2018-11-14T11:23:08.949Z,11.40
2018-11-14T11:25:36.554Z,11.50
2018-11-14T11:28:04.284Z,11.60
2018-11-14T11:30:31.883Z,11.60
2018-11-14T11:32:59.490Z,11.60
2018-11-14T11:35:27.152Z,11.60
2018-11-14T11:37:54.746Z,11.60
2018-11-14T11:40:22.328Z,11.70
2018-11-14T11:42:49.925Z,11.60
2018-11-14T11:45:17.526Z,11.60
2018-11-14T11:47:45.140Z,11.60
2018-11-14T11:50:12.661Z,11.60
2018-11-14T11:52:40.231Z,11.60
2018-11-14T11:55:07.826Z,11.60
2018-11-14T11:57:35.426Z,11.60
2018-11-14T12:00:03.895Z,11.70
2018-11-14T12:02:31.534Z,11.70
2018-11-14T12:04:59.098Z,11.80
2018-11-14T12:07:26.670Z,11.80
2018-11-14T12:12:28.615Z,11.70
2018-11-14T12:14:56.239Z,11.70
2018-11-14T12:17:23.950Z,11.80
2018-11-14T12:19:51.519Z,11.80
2018-11-14T12:22:19.099Z,11.90
2018-11-14T12:24:46.761Z,11.90
2018-11-14T12:27:14.504Z,12.00
2018-11-14T12:29:42.070Z,12.00
2018-11-14T12:32:09.590Z,11.90
2018-11-14T12:34:37.253Z,12.00
2018-11-14T12:37:04.842Z,11.80
2018-11-14T12:39:32.449Z,11.80
2018-11-14T12:42:00.064Z,11.80
2018-11-14T12:44:27.677Z,11.80
2018-11-14T12:46:55.332Z,11.90
2018-11-14T12:49:22.922Z,12.00
2018-11-14T12:51:50.483Z,12.10
2018-11-14T12:54:18.044Z,12.10
2018-11-14T12:56:45.619Z,12.10
2018-11-14T12:59:13.179Z,12.10
2018-11-14T13:01:40.824Z,12.10
2018-11-14T13:04:08.387Z,12.00
2018-11-14T13:06:35.996Z,12.10
2018-11-14T13:09:05.042Z,12.10
2018-11-14T13:11:32.612Z,12.10
2018-11-14T13:14:00.210Z,12.20
2018-11-14T13:16:27.883Z,12.10
2018-11-14T13:18:55.525Z,12.10
2018-11-14T13:21:23.129Z,12.10
2018-11-14T13:23:50.708Z,12.10
2018-11-14T13:26:18.348Z,12.00
2018-11-14T13:28:45.953Z,12.00
2018-11-14T13:31:13.568Z,12.00
2018-11-14T13:33:41.152Z,12.00
2018-11-14T13:36:08.772Z,12.00
2018-11-14T13:38:36.450Z,11.90
2018-11-14T13:41:04.258Z,11.90
2018-11-14T13:43:31.828Z,11.90
2018-11-14T13:45:59.490Z,12.00
2018-11-14T13:48:27.098Z,11.90
2018-11-14T13:50:54.964Z,11.90
2018-11-14T13:53:22.358Z,11.90
2018-11-14T13:55:50.113Z,12.00
2018-11-14T13:58:17.637Z,11.90
2018-11-14T14:00:45.222Z,11.70
2018-11-14T14:03:12.880Z,11.70
2018-11-14T14:05:40.550Z,11.80
2018-11-14T14:08:08.182Z,11.80
2018-11-14T14:10:35.840Z,11.80
2018-11-14T14:13:03.443Z,11.80
2018-11-14T14:15:31.054Z,11.90
2018-11-14T14:17:58.663Z,11.90
2018-11-14T14:20:26.220Z,11.90
2018-11-14T14:22:53.802Z,11.90
2018-11-14T14:25:22.286Z,11.90
2018-11-14T14:27:49.870Z,12.00
2018-11-14T14:30:18.902Z,11.90
2018-11-14T14:32:46.930Z,11.90
2018-11-14T14:35:15.580Z,12.00
2018-11-14T14:37:43.230Z,12.00
2018-11-14T14:40:13.059Z,12.00
2018-11-14T14:42:40.674Z,12.00
2018-11-14T14:45:09.416Z,12.00
2018-11-14T14:47:37.388Z,12.00
2018-11-14T14:50:07.697Z,12.00
2018-11-14T14:52:35.699Z,11.90
2018-11-14T14:55:03.479Z,11.90
2018-11-14T14:57:31.092Z,11.90
2018-11-14T14:59:58.642Z,11.90
2018-11-14T15:02:26.169Z,11.90
2018-11-14T15:04:53.749Z,11.80
2018-11-14T15:07:21.324Z,11.80
2018-11-14T15:09:48.910Z,11.80
2018-11-14T15:12:16.560Z,11.80
2018-11-14T15:14:44.240Z,11.90
2018-11-14T15:17:11.832Z,11.80
2018-11-14T15:19:39.544Z,11.80
2018-11-14T15:22:07.122Z,11.80
2018-11-14T15:24:34.757Z,11.90
2018-11-14T15:27:02.404Z,11.90
2018-11-14T15:29:29.901Z,11.80
2018-11-14T15:31:57.491Z,11.80
2018-11-14T15:34:25.048Z,11.80
2018-11-14T15:36:52.579Z,11.80
2018-11-14T15:39:20.284Z,11.80
2018-11-14T15:41:48.015Z,11.80
2018-11-14T15:44:15.520Z,11.80
2018-11-14T15:46:43.332Z,11.80
2018-11-14T15:49:11.104Z,11.80
2018-11-14T15:51:39.046Z,11.70
2018-11-14T15:54:06.546Z,11.60
2018-11-14T15:56:34.192Z,11.40
2018-11-14T15:59:01.902Z,11.40
2018-11-14T16:01:29.785Z,11.40
2018-11-14T16:03:57.739Z,11.50
2018-11-14T16:06:25.449Z,11.50
2018-11-14T16:08:53.168Z,11.50
2018-11-14T16:11:21.567Z,11.50
2018-11-14T16:13:54.962Z,11.60
2018-11-14T16:16:22.824Z,11.60
2018-11-14T16:18:50.727Z,11.60
2018-11-14T16:21:18.545Z,11.50
2018-11-14T16:23:46.281Z,11.40
2018-11-14T16:26:14.136Z,11.40
2018-11-14T16:28:42.398Z,11.40
2018-11-14T16:31:10.154Z,11.50
2018-11-14T16:33:38.044Z,11.50
2018-11-14T16:36:06.301Z,11.50
2018-11-14T16:38:34.572Z,11.40
2018-11-14T16:41:02.812Z,11.40
2018-11-14T16:43:31.087Z,11.50
2018-11-14T16:45:59.321Z,11.50
2018-11-14T16:48:27.176Z,11.50
2018-11-14T16:50:54.897Z,11.50
2018-11-14T16:53:22.585Z,11.50
2018-11-14T16:55:50.366Z,11.50
2018-11-14T16:58:18.113Z,11.50
2018-11-14T17:00:45.840Z,11.50
2018-11-14T17:03:13.727Z,11.60
2018-11-14T17:05:41.491Z,11.50
2018-11-14T17:08:09.292Z,11.50
2018-11-14T17:10:37.064Z,11.50
2018-11-14T17:13:05.291Z,11.50
2018-11-14T17:15:33.090Z,11.50
2018-11-14T17:18:02.186Z,11.40
2018-11-14T17:20:30.176Z,11.40
2018-11-14T17:22:57.947Z,11.30
2018-11-14T17:25:25.745Z,11.20
2018-11-14T17:27:53.458Z,11.00
2018-11-14T17:30:23.333Z,11.00
2018-11-14T17:32:52.424Z,11.10
2018-11-14T17:35:20.445Z,11.00
2018-11-14T17:37:48.533Z,11.10
2018-11-14T17:40:22.901Z,11.20
2018-11-14T17:42:51.393Z,11.20
2018-11-14T17:45:20.973Z,11.10
2018-11-14T17:47:49.160Z,11.20
2018-11-14T17:50:21.464Z,11.20
2018-11-14T17:52:50.064Z,11.30
2018-11-14T17:55:18.609Z,11.30
2018-11-14T17:57:46.185Z,11.30
2018-11-14T18:00:16.151Z,11.30
2018-11-14T18:02:44.520Z,11.20
2018-11-14T18:05:14.660Z,11.10
2018-11-14T18:07:43.329Z,11.10
2018-11-14T18:10:13.636Z,11.10
2018-11-14T18:12:41.690Z,11.00
2018-11-14T18:15:10.486Z,11.00
2018-11-14T18:17:38.865Z,11.00
2018-11-14T18:20:08.620Z,11.00
2018-11-14T18:22:36.335Z,11.10
2018-11-14T18:25:04.304Z,11.20
2018-11-14T18:27:31.993Z,11.10
2018-11-14T18:29:59.832Z,11.10
2018-11-14T18:32:27.636Z,11.10
2018-11-14T18:34:55.421Z,11.10
2018-11-14T18:37:23.192Z,11.10
2018-11-14T18:39:50.882Z,11.10
2018-11-14T18:42:18.584Z,11.00
2018-11-14T18:44:46.358Z,11.00
2018-11-14T18:47:14.081Z,11.00
2018-11-14T18:49:42.041Z,11.00
2018-11-14T18:52:09.820Z,11.00
2018-11-14T18:54:37.520Z,11.00
2018-11-14T18:57:05.721Z,11.00
2018-11-14T18:59:33.320Z,11.00
2018-11-14T19:02:00.898Z,11.00
2018-11-14T19:04:28.546Z,11.00
2018-11-14T19:06:56.213Z,11.00
2018-11-14T19:09:23.876Z,11.00
2018-11-14T19:11:51.638Z,11.10
2018-11-14T19:14:19.543Z,11.20
2018-11-14T19:16:47.195Z,11.10
2018-11-14T19:19:14.946Z,11.30
2018-11-14T19:21:42.720Z,11.20
2018-11-14T19:24:10.558Z,11.00
2018-11-14T19:26:38.317Z,11.00
2018-11-14T19:29:05.998Z,11.00
2018-11-14T19:31:33.746Z,10.90
2018-11-14T19:34:01.507Z,10.90
2018-11-14T19:36:29.242Z,10.90
2018-11-14T19:38:56.971Z,10.90
2018-11-14T19:41:24.724Z,10.90
2018-11-14T19:43:52.553Z,10.90
2018-11-14T19:46:20.562Z,10.60
2018-11-14T19:48:48.404Z,10.60
2018-11-14T19:51:16.893Z,10.60
2018-11-14T19:53:44.544Z,10.70
2018-11-14T19:56:12.222Z,10.70
2018-11-14T19:58:40.143Z,10.70
2018-11-14T20:01:07.889Z,10.50
2018-11-14T20:03:35.744Z,10.40
2018-11-14T20:06:03.680Z,10.40
2018-11-14T20:08:31.429Z,10.40
2018-11-14T20:10:59.117Z,10.40
2018-11-14T20:13:26.800Z,10.30
2018-11-14T20:15:54.563Z,10.30
2018-11-14T20:18:22.234Z,10.30
2018-11-14T20:20:49.979Z,10.20
2018-11-14T20:23:17.659Z,10.20
2018-11-14T20:25:45.320Z,10.10
2018-11-14T20:28:13.052Z,10.00
2018-11-14T20:30:40.689Z,9.90
2018-11-14T20:33:10.715Z,9.90
2018-11-14T20:35:38.419Z,10.10
2018-11-14T20:38:06.169Z,10.20
2018-11-14T20:40:37.443Z,10.20
2018-11-14T20:43:06.118Z,10.20
2018-11-14T20:45:34.208Z,10.30
2018-11-14T20:48:01.917Z,10.50
2018-11-14T20:50:29.616Z,10.50
2018-11-14T20:52:58.991Z,10.50
2018-11-14T20:55:26.849Z,10.50
2018-11-14T20:57:54.561Z,10.50
2018-11-14T21:00:25.514Z,10.50
2018-11-14T21:02:53.313Z,10.60
2018-11-14T21:05:21.184Z,10.60
2018-11-14T21:07:48.937Z,10.60
2018-11-14T21:10:17.939Z,10.60
2018-11-14T21:12:46.119Z,10.70
2018-11-14T21:15:16.158Z,10.70
2018-11-14T21:17:43.927Z,10.80
2018-11-14T21:20:11.764Z,10.70
2018-11-14T21:22:40.152Z,10.60
2018-11-14T21:25:09.543Z,10.60
2018-11-14T21:27:37.346Z,10.60
2018-11-14T21:30:07.382Z,10.70
2018-11-14T21:32:35.081Z,10.70
2018-11-14T21:35:02.938Z,10.50
2018-11-14T21:37:30.593Z,10.50
2018-11-14T21:39:58.212Z,10.50
2018-11-14T21:42:25.851Z,10.40
2018-11-14T21:44:53.414Z,10.40
2018-11-14T21:47:26.567Z,10.40
2018-11-14T21:49:54.118Z,10.40
2018-11-14T21:52:28.405Z,10.40
2018-11-14T21:54:55.954Z,10.40
2018-11-14T21:57:23.541Z,10.40
2018-11-14T21:59:51.556Z,10.40
2018-11-14T22:02:19.123Z,10.40
2018-11-14T22:04:46.718Z,10.40
2018-11-14T22:07:14.305Z,10.30
2018-11-14T22:09:41.945Z,10.30
2018-11-14T22:12:09.502Z,10.30
2018-11-14T22:14:37.066Z,10.30
2018-11-14T22:17:05.232Z,10.30
2018-11-14T22:19:32.943Z,10.40
2018-11-14T22:22:00.502Z,10.50
2018-11-14T22:24:28.043Z,10.50
2018-11-14T22:26:55.694Z,10.50
2018-11-14T22:29:23.231Z,10.50
2018-11-14T22:31:50.788Z,10.40
2018-11-14T22:34:18.393Z,10.50
2018-11-14T22:36:45.979Z,10.50
2018-11-14T22:39:13.573Z,10.50
2018-11-14T22:41:41.107Z,10.50
2018-11-14T22:44:08.713Z,10.50
2018-11-14T22:46:36.333Z,10.40
2018-11-14T22:49:03.985Z,10.30
2018-11-14T22:51:31.579Z,10.40
2018-11-14T22:53:59.193Z,10.30
2018-11-14T22:56:26.823Z,10.30
2018-11-14T22:58:54.434Z,10.40
2018-11-14T23:01:22.042Z,10.40
2018-11-14T23:03:49.656Z,10.30
2018-11-14T23:06:17.239Z,10.30
2018-11-14T23:08:44.819Z,10.40
2018-11-14T23:11:12.403Z,10.40
2018-11-14T23:13:39.978Z,10.40
2018-11-14T23:16:07.526Z,10.30
2018-11-14T23:18:35.090Z,10.30
2018-11-14T23:21:02.696Z,10.40
2018-11-14T23:23:30.272Z,10.50
2018-11-14T23:25:57.800Z,10.50
2018-11-14T23:28:25.374Z,10.50
2018-11-14T23:30:52.930Z,10.40
2018-11-14T23:33:20.518Z,10.50
2018-11-14T23:35:48.167Z,10.50
2018-11-14T23:38:15.716Z,10.50
2018-11-14T23:40:43.287Z,10.30
2018-11-14T23:43:10.827Z,10.30
2018-11-14T23:45:38.376Z,10.30
2018-11-14T23:48:06.036Z,10.20
2018-11-14T23:50:33.620Z,10.00
2018-11-14T23:53:01.958Z,10.00
2018-11-14T23:55:30.222Z,10.10
2018-11-14T23:57:58.233Z,10.20
